sensor_id;sensor_type;location;lat;lon;timestamp;P1;P2;P0
32503;PMS5003;18953;45.930;13.640;2024-03-06T00:00:56;12;9;
32503;PMS5003;18953;45.930;13.640;2024-03-06T00:06:13;10;9;
32503;PMS5003;18953;45.930;13.640;2024-03-06T00:11:29;11;10;
32503;PMS5003;18953;45.930;13.640;2024-03-06T00:16:45;11;10;
32503;PMS5003;18953;45.930;13.640;2024-03-06T00:22:02;9;9;
32503;PMS5003;18953;45.930;13.640;2024-03-06T00:27:18;12;10;
32503;PMS5003;18953;45.930;13.640;2024-03-06T00:32:34;14;12;
32503;PMS5003;18953;45.930;13.640;2024-03-06T00:37:51;9;9;
32503;PMS5003;18953;45.930;13.640;2024-03-06T00:43:07;11;10;
32503;PMS5003;18953;45.930;13.640;2024-03-06T00:48:23;11;10;
32503;PMS5003;18953;45.930;13.640;2024-03-06T00:53:39;11;10;
32503;PMS5003;18953;45.930;13.640;2024-03-06T00:58:56;10;10;
32503;PMS5003;18953;45.930;13.640;2024-03-06T01:04:12;12;10;
32503;PMS5003;18953;45.930;13.640;2024-03-06T01:09:28;13;12;
32503;PMS5003;18953;45.930;13.640;2024-03-06T01:14:45;11;10;
32503;PMS5003;18953;45.930;13.640;2024-03-06T01:20:01;10;10;
32503;PMS5003;18953;45.930;13.640;2024-03-06T01:25:17;12;10;
32503;PMS5003;18953;45.930;13.640;2024-03-06T01:30:34;12;11;
32503;PMS5003;18953;45.930;13.640;2024-03-06T01:35:50;10;10;
32503;PMS5003;18953;45.930;13.640;2024-03-06T01:41:06;11;9;
32503;PMS5003;18953;45.930;13.640;2024-03-06T01:46:23;10;9;
32503;PMS5003;18953;45.930;13.640;2024-03-06T01:51:39;12;12;
32503;PMS5003;18953;45.930;13.640;2024-03-06T01:56:55;14;11;
32503;PMS5003;18953;45.930;13.640;2024-03-06T02:02:12;12;11;
32503;PMS5003;18953;45.930;13.640;2024-03-06T02:07:28;14;11;
32503;PMS5003;18953;45.930;13.640;2024-03-06T02:12:44;13;11;
32503;PMS5003;18953;45.930;13.640;2024-03-06T02:18:04;14;13;
32503;PMS5003;18953;45.930;13.640;2024-03-06T02:23:17;13;11;
32503;PMS5003;18953;45.930;13.640;2024-03-06T02:28:33;16;14;
32503;PMS5003;18953;45.930;13.640;2024-03-06T02:33:49;15;13;
32503;PMS5003;18953;45.930;13.640;2024-03-06T02:39:06;11;11;
32503;PMS5003;18953;45.930;13.640;2024-03-06T02:44:22;14;13;
32503;PMS5003;18953;45.930;13.640;2024-03-06T02:49:38;16;13;
32503;PMS5003;18953;45.930;13.640;2024-03-06T02:54:55;12;11;
32503;PMS5003;18953;45.930;13.640;2024-03-06T03:00:11;16;14;
32503;PMS5003;18953;45.930;13.640;2024-03-06T03:05:28;13;12;
32503;PMS5003;18953;45.930;13.640;2024-03-06T03:10:44;14;12;
32503;PMS5003;18953;45.930;13.640;2024-03-06T03:16:00;13;13;
32503;PMS5003;18953;45.930;13.640;2024-03-06T03:21:16;14;14;
32503;PMS5003;18953;45.930;13.640;2024-03-06T03:26:33;13;12;
32503;PMS5003;18953;45.930;13.640;2024-03-06T03:31:49;13;13;
32503;PMS5003;18953;45.930;13.640;2024-03-06T03:37:05;15;12;
32503;PMS5003;18953;45.930;13.640;2024-03-06T03:42:22;17;16;
32503;PMS5003;18953;45.930;13.640;2024-03-06T03:47:38;14;13;
32503;PMS5003;18953;45.930;13.640;2024-03-06T03:52:54;15;13;
32503;PMS5003;18953;45.930;13.640;2024-03-06T03:58:11;14;13;
32503;PMS5003;18953;45.930;13.640;2024-03-06T04:03:27;15;13;
32503;PMS5003;18953;45.930;13.640;2024-03-06T04:08:43;19;18;
32503;PMS5003;18953;45.930;13.640;2024-03-06T04:13:59;15;14;
32503;PMS5003;18953;45.930;13.640;2024-03-06T04:19:16;17;14;
32503;PMS5003;18953;45.930;13.640;2024-03-06T04:24:32;16;15;
32503;PMS5003;18953;45.930;13.640;2024-03-06T04:29:48;18;14;
32503;PMS5003;18953;45.930;13.640;2024-03-06T04:35:05;18;16;
32503;PMS5003;18953;45.930;13.640;2024-03-06T04:40:21;17;16;
32503;PMS5003;18953;45.930;13.640;2024-03-06T04:45:37;17;14;
32503;PMS5003;18953;45.930;13.640;2024-03-06T04:50:54;16;15;
32503;PMS5003;18953;45.930;13.640;2024-03-06T04:56:10;18;16;
32503;PMS5003;18953;45.930;13.640;2024-03-06T05:01:26;15;14;
32503;PMS5003;18953;45.930;13.640;2024-03-06T05:06:43;27;24;
32503;PMS5003;18953;45.930;13.640;2024-03-06T05:12:00;16;14;
32503;PMS5003;18953;45.930;13.640;2024-03-06T05:17:16;18;15;
32503;PMS5003;18953;45.930;13.640;2024-03-06T05:22:32;20;18;
32503;PMS5003;18953;45.930;13.640;2024-03-06T05:27:49;21;17;
32503;PMS5003;18953;45.930;13.640;2024-03-06T05:33:05;19;17;
32503;PMS5003;18953;45.930;13.640;2024-03-06T05:38:21;18;18;
32503;PMS5003;18953;45.930;13.640;2024-03-06T05:43:38;20;18;
32503;PMS5003;18953;45.930;13.640;2024-03-06T05:48:54;25;22;
32503;PMS5003;18953;45.930;13.640;2024-03-06T05:54:10;23;21;
32503;PMS5003;18953;45.930;13.640;2024-03-06T05:59:27;24;22;
32503;PMS5003;18953;45.930;13.640;2024-03-06T06:04:43;27;21;
32503;PMS5003;18953;45.930;13.640;2024-03-06T06:09:59;24;22;
32503;PMS5003;18953;45.930;13.640;2024-03-06T06:15:16;26;25;
32503;PMS5003;18953;45.930;13.640;2024-03-06T06:20:32;24;22;
32503;PMS5003;18953;45.930;13.640;2024-03-06T06:25:48;30;25;
32503;PMS5003;18953;45.930;13.640;2024-03-06T06:31:05;31;27;
32503;PMS5003;18953;45.930;13.640;2024-03-06T06:36:21;23;19;
32503;PMS5003;18953;45.930;13.640;2024-03-06T06:41:37;22;20;
32503;PMS5003;18953;45.930;13.640;2024-03-06T06:46:54;15;15;
32503;PMS5003;18953;45.930;13.640;2024-03-06T06:52:10;24;20;
32503;PMS5003;18953;45.930;13.640;2024-03-06T06:57:27;22;21;
32503;PMS5003;18953;45.930;13.640;2024-03-06T07:02:43;24;22;
32503;PMS5003;18953;45.930;13.640;2024-03-06T07:07:59;22;20;
32503;PMS5003;18953;45.930;13.640;2024-03-06T07:13:15;24;21;
32503;PMS5003;18953;45.930;13.640;2024-03-06T07:18:32;29;24;
32503;PMS5003;18953;45.930;13.640;2024-03-06T07:23:49;26;22;
32503;PMS5003;18953;45.930;13.640;2024-03-06T07:29:05;20;18;
32503;PMS5003;18953;45.930;13.640;2024-03-06T07:34:21;19;16;
32503;PMS5003;18953;45.930;13.640;2024-03-06T07:39:38;19;16;
32503;PMS5003;18953;45.930;13.640;2024-03-06T07:44:54;15;14;
32503;PMS5003;18953;45.930;13.640;2024-03-06T07:50:10;18;15;
32503;PMS5003;18953;45.930;13.640;2024-03-06T07:55:27;21;17;
32503;PMS5003;18953;45.930;13.640;2024-03-06T08:00:43;18;15;
32503;PMS5003;18953;45.930;13.640;2024-03-06T08:05:59;15;13;
32503;PMS5003;18953;45.930;13.640;2024-03-06T08:11:16;23;22;
32503;PMS5003;18953;45.930;13.640;2024-03-06T08:16:33;34;29;
32503;PMS5003;18953;45.930;13.640;2024-03-06T08:21:49;24;22;
32503;PMS5003;18953;45.930;13.640;2024-03-06T08:27:05;18;16;
32503;PMS5003;18953;45.930;13.640;2024-03-06T08:32:22;24;21;
32503;PMS5003;18953;45.930;13.640;2024-03-06T08:37:39;26;24;
32503;PMS5003;18953;45.930;13.640;2024-03-06T08:42:55;21;16;
32503;PMS5003;18953;45.930;13.640;2024-03-06T08:48:11;36;28;
32503;PMS5003;18953;45.930;13.640;2024-03-06T08:53:28;24;19;
32503;PMS5003;18953;45.930;13.640;2024-03-06T08:58:44;16;16;
32503;PMS5003;18953;45.930;13.640;2024-03-06T09:04:00;40;38;
32503;PMS5003;18953;45.930;13.640;2024-03-06T09:09:17;20;18;
32503;PMS5003;18953;45.930;13.640;2024-03-06T09:14:33;19;18;
32503;PMS5003;18953;45.930;13.640;2024-03-06T09:19:49;19;17;
32503;PMS5003;18953;45.930;13.640;2024-03-06T09:25:06;13;12;
32503;PMS5003;18953;45.930;13.640;2024-03-06T09:30:22;11;10;
32503;PMS5003;18953;45.930;13.640;2024-03-06T09:35:38;15;13;
32503;PMS5003;18953;45.930;13.640;2024-03-06T09:40:55;13;11;
32503;PMS5003;18953;45.930;13.640;2024-03-06T09:46:11;6;6;
32503;PMS5003;18953;45.930;13.640;2024-03-06T09:51:27;8;7;
32503;PMS5003;18953;45.930;13.640;2024-03-06T09:56:44;12;9;
32503;PMS5003;18953;45.930;13.640;2024-03-06T10:02:00;12;12;
32503;PMS5003;18953;45.930;13.640;2024-03-06T10:07:16;15;12;
32503;PMS5003;18953;45.930;13.640;2024-03-06T10:12:33;11;9;
32503;PMS5003;18953;45.930;13.640;2024-03-06T10:17:49;8;7;
32503;PMS5003;18953;45.930;13.640;2024-03-06T10:23:06;5;5;
32503;PMS5003;18953;45.930;13.640;2024-03-06T10:28:22;9;8;
32503;PMS5003;18953;45.930;13.640;2024-03-06T10:33:38;6;6;
32503;PMS5003;18953;45.930;13.640;2024-03-06T10:38:54;5;4;
32503;PMS5003;18953;45.930;13.640;2024-03-06T10:44:11;4;4;
32503;PMS5003;18953;45.930;13.640;2024-03-06T10:49:27;5;5;
32503;PMS5003;18953;45.930;13.640;2024-03-06T10:54:43;14;11;
32503;PMS5003;18953;45.930;13.640;2024-03-06T10:59:59;3;3;
32503;PMS5003;18953;45.930;13.640;2024-03-06T11:05:16;4;4;
32503;PMS5003;18953;45.930;13.640;2024-03-06T11:10:32;6;6;
32503;PMS5003;18953;45.930;13.640;2024-03-06T11:15:49;5;4;
32503;PMS5003;18953;45.930;13.640;2024-03-06T11:21:27;2;2;
32503;PMS5003;18953;45.930;13.640;2024-03-06T11:26:21;2;2;
32503;PMS5003;18953;45.930;13.640;2024-03-06T11:31:37;4;3;
32503;PMS5003;18953;45.930;13.640;2024-03-06T11:36:56;2;2;
32503;PMS5003;18953;45.930;13.640;2024-03-06T11:42:11;2;2;
32503;PMS5003;18953;45.930;13.640;2024-03-06T11:47:26;1;1;
32503;PMS5003;18953;45.930;13.640;2024-03-06T11:52:43;2;2;
32503;PMS5003;18953;45.930;13.640;2024-03-06T11:57:59;1;1;
32503;PMS5003;18953;45.930;13.640;2024-03-06T12:03:15;2;2;
32503;PMS5003;18953;45.930;13.640;2024-03-06T12:08:32;3;2;
32503;PMS5003;18953;45.930;13.640;2024-03-06T12:13:48;4;4;
32503;PMS5003;18953;45.930;13.640;2024-03-06T12:19:04;1;1;
32503;PMS5003;18953;45.930;13.640;2024-03-06T12:24:20;4;3;
32503;PMS5003;18953;45.930;13.640;2024-03-06T12:29:37;2;2;
32503;PMS5003;18953;45.930;13.640;2024-03-06T12:34:56;3;2;
32503;PMS5003;18953;45.930;13.640;2024-03-06T12:40:10;2;2;
32503;PMS5003;18953;45.930;13.640;2024-03-06T12:45:26;3;2;
32503;PMS5003;18953;45.930;13.640;2024-03-06T12:50:42;2;2;
32503;PMS5003;18953;45.930;13.640;2024-03-06T12:55:58;3;2;
32503;PMS5003;18953;45.930;13.640;2024-03-06T13:01:15;2;2;
32503;PMS5003;18953;45.930;13.640;2024-03-06T13:06:31;2;2;
32503;PMS5003;18953;45.930;13.640;2024-03-06T13:11:47;2;1;
32503;PMS5003;18953;45.930;13.640;2024-03-06T13:17:03;4;3;
32503;PMS5003;18953;45.930;13.640;2024-03-06T13:22:20;2;1;
32503;PMS5003;18953;45.930;13.640;2024-03-06T13:27:36;8;5;
32503;PMS5003;18953;45.930;13.640;2024-03-06T13:32:52;3;3;
32503;PMS5003;18953;45.930;13.640;2024-03-06T13:38:09;5;3;
32503;PMS5003;18953;45.930;13.640;2024-03-06T13:43:25;4;3;
32503;PMS5003;18953;45.930;13.640;2024-03-06T13:48:41;2;2;
32503;PMS5003;18953;45.930;13.640;2024-03-06T13:53:58;2;2;
32503;PMS5003;18953;45.930;13.640;2024-03-06T13:59:14;2;2;
32503;PMS5003;18953;45.930;13.640;2024-03-06T14:04:30;7;5;
32503;PMS5003;18953;45.930;13.640;2024-03-06T14:09:47;5;4;
32503;PMS5003;18953;45.930;13.640;2024-03-06T14:15:04;3;3;
32503;PMS5003;18953;45.930;13.640;2024-03-06T14:20:19;3;2;
32503;PMS5003;18953;45.930;13.640;2024-03-06T14:25:36;6;6;
32503;PMS5003;18953;45.930;13.640;2024-03-06T14:30:52;11;8;
32503;PMS5003;18953;45.930;13.640;2024-03-06T14:36:08;2;2;
32503;PMS5003;18953;45.930;13.640;2024-03-06T14:41:25;1;1;
32503;PMS5003;18953;45.930;13.640;2024-03-06T14:46:41;2;2;
32503;PMS5003;18953;45.930;13.640;2024-03-06T14:51:57;2;1;
32503;PMS5003;18953;45.930;13.640;2024-03-06T14:57:14;2;1;
32503;PMS5003;18953;45.930;13.640;2024-03-06T15:02:30;0;0;
32503;PMS5003;18953;45.930;13.640;2024-03-06T15:07:46;0;0;
32503;PMS5003;18953;45.930;13.640;2024-03-06T15:13:03;4;3;
32503;PMS5003;18953;45.930;13.640;2024-03-06T15:18:19;0;0;
32503;PMS5003;18953;45.930;13.640;2024-03-06T15:23:35;0;0;
32503;PMS5003;18953;45.930;13.640;2024-03-06T15:28:51;6;5;
32503;PMS5003;18953;45.930;13.640;2024-03-06T15:34:08;2;2;
32503;PMS5003;18953;45.930;13.640;2024-03-06T15:39:24;4;3;
32503;PMS5003;18953;45.930;13.640;2024-03-06T15:44:40;1;1;
32503;PMS5003;18953;45.930;13.640;2024-03-06T15:49:57;1;1;
32503;PMS5003;18953;45.930;13.640;2024-03-06T15:55:13;0;0;
32503;PMS5003;18953;45.930;13.640;2024-03-06T16:00:30;0;0;
32503;PMS5003;18953;45.930;13.640;2024-03-06T16:05:46;0;0;
32503;PMS5003;18953;45.930;13.640;2024-03-06T16:11:02;0;0;
32503;PMS5003;18953;45.930;13.640;2024-03-06T16:16:18;1;1;
32503;PMS5003;18953;45.930;13.640;2024-03-06T16:21:35;2;2;
32503;PMS5003;18953;45.930;13.640;2024-03-06T16:26:51;3;3;
32503;PMS5003;18953;45.930;13.640;2024-03-06T16:32:07;2;2;
32503;PMS5003;18953;45.930;13.640;2024-03-06T16:37:24;4;3;
32503;PMS5003;18953;45.930;13.640;2024-03-06T16:42:40;2;2;
32503;PMS5003;18953;45.930;13.640;2024-03-06T16:47:56;3;3;
32503;PMS5003;18953;45.930;13.640;2024-03-06T16:53:13;6;4;
32503;PMS5003;18953;45.930;13.640;2024-03-06T16:58:29;4;3;
32503;PMS5003;18953;45.930;13.640;2024-03-06T17:03:45;3;2;
32503;PMS5003;18953;45.930;13.640;2024-03-06T17:09:02;2;2;
32503;PMS5003;18953;45.930;13.640;2024-03-06T17:14:18;6;4;
32503;PMS5003;18953;45.930;13.640;2024-03-06T17:19:34;2;2;
32503;PMS5003;18953;45.930;13.640;2024-03-06T17:24:50;6;5;
32503;PMS5003;18953;45.930;13.640;2024-03-06T17:30:07;1;1;
32503;PMS5003;18953;45.930;13.640;2024-03-06T17:35:23;6;3;
32503;PMS5003;18953;45.930;13.640;2024-03-06T17:40:40;5;4;
32503;PMS5003;18953;45.930;13.640;2024-03-06T17:45:56;6;4;
32503;PMS5003;18953;45.930;13.640;2024-03-06T17:51:13;3;3;
32503;PMS5003;18953;45.930;13.640;2024-03-06T17:56:29;7;6;
32503;PMS5003;18953;45.930;13.640;2024-03-06T18:01:45;13;12;
32503;PMS5003;18953;45.930;13.640;2024-03-06T18:07:02;27;25;
32503;PMS5003;18953;45.930;13.640;2024-03-06T18:12:18;7;7;
32503;PMS5003;18953;45.930;13.640;2024-03-06T18:17:34;10;9;
32503;PMS5003;18953;45.930;13.640;2024-03-06T18:22:51;28;24;
32503;PMS5003;18953;45.930;13.640;2024-03-06T18:28:07;26;25;
32503;PMS5003;18953;45.930;13.640;2024-03-06T18:33:23;27;25;
32503;PMS5003;18953;45.930;13.640;2024-03-06T18:38:40;37;32;
32503;PMS5003;18953;45.930;13.640;2024-03-06T18:43:56;29;27;
32503;PMS5003;18953;45.930;13.640;2024-03-06T18:49:13;31;27;
32503;PMS5003;18953;45.930;13.640;2024-03-06T18:54:29;20;20;
32503;PMS5003;18953;45.930;13.640;2024-03-06T18:59:45;20;20;
32503;PMS5003;18953;45.930;13.640;2024-03-06T19:05:02;44;38;
32503;PMS5003;18953;45.930;13.640;2024-03-06T19:10:18;34;30;
32503;PMS5003;18953;45.930;13.640;2024-03-06T19:15:34;38;33;
32503;PMS5003;18953;45.930;13.640;2024-03-06T19:20:51;38;33;
32503;PMS5003;18953;45.930;13.640;2024-03-06T19:26:07;24;21;
32503;PMS5003;18953;45.930;13.640;2024-03-06T19:31:23;35;28;
32503;PMS5003;18953;45.930;13.640;2024-03-06T19:36:40;26;24;
32503;PMS5003;18953;45.930;13.640;2024-03-06T19:41:56;17;14;
32503;PMS5003;18953;45.930;13.640;2024-03-06T19:47:12;18;16;
32503;PMS5003;18953;45.930;13.640;2024-03-06T19:52:28;23;23;
32503;PMS5003;18953;45.930;13.640;2024-03-06T19:57:45;35;31;
32503;PMS5003;18953;45.930;13.640;2024-03-06T20:03:01;29;27;
32503;PMS5003;18953;45.930;13.640;2024-03-06T20:08:18;52;44;
32503;PMS5003;18953;45.930;13.640;2024-03-06T20:13:34;28;25;
32503;PMS5003;18953;45.930;13.640;2024-03-06T20:18:51;19;18;
32503;PMS5003;18953;45.930;13.640;2024-03-06T20:24:07;26;25;
32503;PMS5003;18953;45.930;13.640;2024-03-06T20:29:23;18;18;
32503;PMS5003;18953;45.930;13.640;2024-03-06T20:34:40;56;46;
32503;PMS5003;18953;45.930;13.640;2024-03-06T20:39:56;33;31;
32503;PMS5003;18953;45.930;13.640;2024-03-06T20:45:12;32;29;
32503;PMS5003;18953;45.930;13.640;2024-03-06T20:50:29;31;27;
32503;PMS5003;18953;45.930;13.640;2024-03-06T20:55:45;33;27;
32503;PMS5003;18953;45.930;13.640;2024-03-06T21:01:02;33;28;
32503;PMS5003;18953;45.930;13.640;2024-03-06T21:06:18;29;25;
32503;PMS5003;18953;45.930;13.640;2024-03-06T21:11:34;20;18;
32503;PMS5003;18953;45.930;13.640;2024-03-06T21:16:50;20;20;
32503;PMS5003;18953;45.930;13.640;2024-03-06T21:22:07;29;28;
32503;PMS5003;18953;45.930;13.640;2024-03-06T21:27:23;25;22;
32503;PMS5003;18953;45.930;13.640;2024-03-06T21:32:39;17;16;
32503;PMS5003;18953;45.930;13.640;2024-03-06T21:37:56;25;24;
32503;PMS5003;18953;45.930;13.640;2024-03-06T21:43:12;23;22;
32503;PMS5003;18953;45.930;13.640;2024-03-06T21:48:28;26;19;
32503;PMS5003;18953;45.930;13.640;2024-03-06T21:53:44;22;20;
32503;PMS5003;18953;45.930;13.640;2024-03-06T21:59:01;19;16;
32503;PMS5003;18953;45.930;13.640;2024-03-06T22:04:17;28;27;
32503;PMS5003;18953;45.930;13.640;2024-03-06T22:09:33;21;18;
32503;PMS5003;18953;45.930;13.640;2024-03-06T22:14:50;25;20;
32503;PMS5003;18953;45.930;13.640;2024-03-06T22:20:06;22;21;
32503;PMS5003;18953;45.930;13.640;2024-03-06T22:25:23;20;18;
32503;PMS5003;18953;45.930;13.640;2024-03-06T22:30:39;18;16;
32503;PMS5003;18953;45.930;13.640;2024-03-06T22:35:55;20;18;
32503;PMS5003;18953;45.930;13.640;2024-03-06T22:41:16;28;25;
32503;PMS5003;18953;45.930;13.640;2024-03-06T22:46:28;35;30;
32503;PMS5003;18953;45.930;13.640;2024-03-06T22:51:44;36;32;
32503;PMS5003;18953;45.930;13.640;2024-03-06T22:57:00;34;30;
32503;PMS5003;18953;45.930;13.640;2024-03-06T23:02:16;32;32;
32503;PMS5003;18953;45.930;13.640;2024-03-06T23:07:33;25;22;
32503;PMS5003;18953;45.930;13.640;2024-03-06T23:12:49;26;22;
32503;PMS5003;18953;45.930;13.640;2024-03-06T23:18:05;21;20;
32503;PMS5003;18953;45.930;13.640;2024-03-06T23:23:22;22;21;
32503;PMS5003;18953;45.930;13.640;2024-03-06T23:28:38;23;23;
32503;PMS5003;18953;45.930;13.640;2024-03-06T23:33:54;21;20;
32503;PMS5003;18953;45.930;13.640;2024-03-06T23:39:11;24;21;
32503;PMS5003;18953;45.930;13.640;2024-03-06T23:44:27;21;19;
32503;PMS5003;18953;45.930;13.640;2024-03-06T23:49:43;16;16;
32503;PMS5003;18953;45.930;13.640;2024-03-06T23:55:00;18;16;
